createdAt,value
2017-06-14T00:01:11.163Z,7.00
2017-06-14T00:03:37.190Z,5.70
2017-06-14T00:06:03.146Z,5.80
2017-06-14T00:08:29.102Z,5.37
2017-06-14T00:10:55.186Z,6.00
2017-06-14T00:13:21.183Z,6.10
2017-06-14T00:15:47.190Z,5.67
2017-06-14T00:18:13.145Z,6.07
2017-06-14T00:20:39.102Z,6.10
2017-06-14T00:23:05.074Z,5.90
2017-06-14T00:25:31.780Z,6.37
2017-06-14T00:27:57.771Z,6.20
2017-06-14T00:30:30.786Z,6.10
2017-06-14T00:32:57.502Z,5.63
2017-06-14T00:35:24.270Z,5.67
2017-06-14T00:37:50.234Z,5.73
2017-06-14T00:40:16.211Z,5.90
2017-06-14T00:42:42.199Z,6.37
2017-06-14T00:45:08.156Z,6.60
2017-06-14T00:47:34.154Z,7.23
2017-06-14T00:50:07.038Z,6.57
2017-06-14T00:52:33.798Z,7.33
2017-06-14T00:54:59.746Z,6.33
2017-06-14T00:57:25.724Z,7.03
2017-06-14T00:59:51.754Z,6.40
2017-06-14T01:02:17.710Z,7.07
2017-06-14T01:04:44.395Z,6.53
2017-06-14T01:07:10.312Z,6.80
2017-06-14T01:09:36.268Z,5.80
2017-06-14T01:12:02.237Z,6.97
2017-06-14T01:14:28.160Z,6.80
2017-06-14T01:16:54.900Z,6.67
2017-06-14T01:19:20.823Z,6.80
2017-06-14T01:21:46.740Z,6.67
2017-06-14T01:24:12.699Z,6.80
2017-06-14T01:26:38.618Z,6.57
2017-06-14T01:29:05.280Z,8.00
2017-06-14T01:31:31.233Z,7.53
2017-06-14T01:33:57.161Z,8.50
2017-06-14T01:36:23.876Z,7.77
2017-06-14T01:38:49.806Z,7.27
2017-06-14T01:41:15.725Z,7.53
2017-06-14T01:43:41.674Z,10.50
2017-06-14T01:46:07.604Z,8.43
2017-06-14T01:48:34.280Z,10.80
2017-06-14T01:51:00.237Z,9.40
2017-06-14T01:53:26.172Z,9.73
2017-06-14T01:55:52.113Z,7.37
2017-06-14T01:58:18.080Z,7.47
2017-06-14T02:00:44.001Z,6.70
2017-06-14T02:03:09.945Z,8.37
2017-06-14T02:05:35.902Z,7.97
2017-06-14T02:08:01.822Z,7.83
2017-06-14T02:10:27.723Z,7.70
2017-06-14T02:12:53.732Z,7.60
2017-06-14T02:15:19.674Z,6.53
2017-06-14T02:17:45.632Z,6.90
2017-06-14T02:20:12.368Z,7.30
2017-06-14T02:22:38.284Z,7.03
2017-06-14T02:25:04.211Z,7.97
2017-06-14T02:27:30.175Z,7.53
2017-06-14T02:29:56.102Z,6.50
2017-06-14T02:32:22.037Z,7.53
2017-06-14T02:34:48.034Z,6.80
2017-06-14T02:37:13.944Z,7.67
2017-06-14T02:39:39.856Z,7.33
2017-06-14T02:42:05.812Z,8.00
2017-06-14T02:44:32.504Z,6.90
2017-06-14T02:46:58.452Z,7.60
2017-06-14T02:49:25.134Z,6.73
2017-06-14T02:51:51.105Z,6.60
2017-06-14T02:54:17.035Z,7.47
2017-06-14T02:56:42.997Z,7.93
2017-06-14T02:59:09.651Z,6.20
2017-06-14T03:01:35.573Z,9.90
2017-06-14T03:04:01.533Z,7.77
2017-06-14T03:06:40.713Z,6.67
2017-06-14T03:09:06.686Z,7.30
2017-06-14T03:11:32.606Z,7.60
2017-06-14T03:13:58.605Z,7.07
2017-06-14T03:16:24.588Z,7.20
2017-06-14T03:18:51.261Z,8.00
2017-06-14T03:21:17.213Z,7.40
2017-06-14T03:23:43.128Z,7.47
2017-06-14T03:26:09.816Z,7.73
2017-06-14T03:28:35.780Z,7.80
2017-06-14T03:31:01.733Z,8.40
2017-06-14T03:33:27.652Z,8.37
2017-06-14T03:35:53.585Z,9.10
2017-06-14T03:38:20.308Z,7.87
2017-06-14T03:40:47.002Z,8.33
2017-06-14T03:43:12.962Z,8.90
2017-06-14T03:45:38.883Z,10.90
2017-06-14T03:48:04.837Z,11.27
2017-06-14T03:50:30.756Z,10.73
2017-06-14T03:52:57.449Z,10.20
2017-06-14T03:55:23.383Z,11.57
2017-06-14T03:57:49.376Z,10.23
2017-06-14T04:00:15.328Z,13.37
2017-06-14T04:02:41.246Z,11.33
2017-06-14T04:05:07.196Z,11.77
2017-06-14T04:07:33.122Z,13.20
2017-06-14T04:09:59.068Z,14.43
2017-06-14T04:12:25.025Z,13.43
2017-06-14T04:14:51.024Z,14.17
2017-06-14T04:17:16.969Z,14.53
2017-06-14T04:19:43.634Z,13.93
2017-06-14T04:22:09.592Z,13.90
2017-06-14T04:24:36.258Z,14.23
2017-06-14T04:27:02.229Z,12.93
2017-06-14T04:29:28.901Z,12.87
2017-06-14T04:31:54.825Z,13.30
2017-06-14T04:34:20.794Z,13.20
2017-06-14T04:36:46.722Z,14.43
2017-06-14T04:39:12.728Z,14.33
2017-06-14T04:41:38.657Z,12.47
2017-06-14T04:44:04.633Z,12.03
2017-06-14T04:46:30.553Z,12.43
2017-06-14T04:48:56.508Z,12.73
2017-06-14T04:51:22.477Z,12.80
2017-06-14T04:53:48.421Z,12.57
2017-06-14T04:56:14.368Z,14.07
2017-06-14T04:58:40.278Z,12.30
2017-06-14T05:01:06.230Z,13.57
2017-06-14T05:03:32.904Z,12.90
2017-06-14T05:05:58.829Z,11.50
2017-06-14T05:08:26.288Z,14.00
2017-06-14T05:10:52.221Z,11.67
2017-06-14T05:13:18.182Z,12.60
2017-06-14T05:15:44.105Z,13.40
2017-06-14T05:18:10.080Z,13.00
2017-06-14T05:20:36.009Z,12.33
2017-06-14T05:23:02.012Z,12.40
2017-06-14T05:25:27.977Z,14.50
2017-06-14T05:27:54.658Z,12.17
2017-06-14T05:30:20.681Z,14.40
2017-06-14T05:32:46.607Z,13.80
2017-06-14T05:35:12.563Z,13.53
2017-06-14T05:37:38.485Z,13.07
2017-06-14T05:40:04.440Z,12.63
2017-06-14T05:42:30.400Z,13.60
2017-06-14T05:44:56.365Z,16.40
2017-06-14T05:47:22.357Z,11.10
2017-06-14T05:49:48.313Z,12.03
2017-06-14T05:52:14.236Z,10.70
2017-06-14T05:54:40.193Z,11.17
2017-06-14T05:57:06.152Z,10.33
2017-06-14T05:59:32.165Z,10.90
2017-06-14T06:01:58.136Z,10.87
2017-06-14T06:04:24.110Z,10.40
2017-06-14T06:06:50.162Z,9.47
2017-06-14T06:09:16.131Z,11.50
2017-06-14T06:11:42.116Z,10.30
2017-06-14T06:14:08.105Z,10.40
2017-06-14T06:16:34.062Z,9.27
2017-06-14T06:19:00.059Z,8.20
2017-06-14T06:21:26.063Z,8.87
2017-06-14T06:23:52.091Z,10.67
2017-06-14T06:26:18.798Z,9.37
2017-06-14T06:28:44.790Z,8.27
2017-06-14T06:31:10.783Z,8.90
2017-06-14T06:33:36.750Z,7.30
2017-06-14T06:36:03.482Z,10.70
2017-06-14T06:38:30.196Z,6.87
2017-06-14T06:40:56.934Z,9.87
2017-06-14T06:43:23.654Z,8.40
2017-06-14T06:45:49.646Z,5.93
2017-06-14T06:48:15.647Z,8.37
2017-06-14T06:50:41.650Z,7.93
2017-06-14T06:53:07.682Z,6.00
2017-06-14T06:55:33.637Z,5.30
2017-06-14T06:57:59.653Z,6.03
2017-06-14T07:00:25.662Z,4.47
2017-06-14T07:02:51.651Z,6.60
2017-06-14T07:05:17.651Z,6.10
2017-06-14T07:07:43.618Z,6.57
2017-06-14T07:10:09.630Z,5.63
2017-06-14T07:12:35.590Z,7.03
2017-06-14T07:15:01.617Z,7.27
2017-06-14T07:17:27.599Z,5.13
2017-06-14T07:19:53.590Z,5.20
2017-06-14T07:22:20.373Z,7.70
2017-06-14T07:24:46.347Z,5.87
2017-06-14T07:27:12.310Z,5.20
2017-06-14T07:29:38.306Z,5.17
2017-06-14T07:32:04.307Z,5.90
2017-06-14T07:34:30.302Z,5.23
2017-06-14T07:36:56.279Z,6.73
2017-06-14T07:39:22.349Z,7.03
2017-06-14T07:41:48.319Z,5.93
2017-06-14T07:44:14.282Z,6.60
2017-06-14T07:46:40.308Z,5.13
2017-06-14T07:49:06.302Z,8.03
2017-06-14T07:51:32.258Z,6.13
2017-06-14T07:53:58.274Z,6.67
2017-06-14T07:56:24.275Z,9.33
2017-06-14T07:58:50.269Z,7.70
2017-06-14T08:01:16.278Z,6.00
2017-06-14T08:03:42.242Z,4.87
2017-06-14T08:06:08.242Z,5.20
2017-06-14T08:08:34.226Z,5.30
2017-06-14T08:11:00.202Z,4.70
2017-06-14T08:13:26.222Z,6.67
2017-06-14T08:15:52.231Z,6.13
2017-06-14T08:18:18.186Z,4.73
2017-06-14T08:20:44.174Z,5.80
2017-06-14T08:23:10.130Z,5.10
2017-06-14T08:25:36.870Z,5.30
2017-06-14T08:28:02.831Z,4.70
2017-06-14T08:30:28.842Z,7.00
2017-06-14T08:32:54.815Z,5.97
2017-06-14T08:35:27.883Z,5.80
2017-06-14T08:37:53.864Z,10.80
2017-06-14T08:40:19.832Z,7.63
2017-06-14T08:42:45.834Z,5.43
2017-06-14T08:45:11.801Z,4.40
2017-06-14T08:47:37.766Z,7.50
2017-06-14T08:50:03.753Z,3.67
2017-06-14T08:52:29.753Z,5.83
2017-06-14T08:54:55.798Z,3.93
2017-06-14T08:57:21.794Z,4.97
2017-06-14T08:59:47.790Z,3.47
2017-06-14T09:02:13.814Z,4.00
2017-06-14T09:04:39.775Z,4.13
2017-06-14T09:07:05.808Z,3.50
2017-06-14T09:09:31.770Z,8.17
2017-06-14T09:11:57.751Z,5.33
2017-06-14T09:14:23.834Z,3.83
2017-06-14T09:16:49.799Z,3.67
2017-06-14T09:19:15.813Z,3.33
2017-06-14T09:21:42.519Z,3.10
2017-06-14T09:24:08.522Z,5.00
2017-06-14T09:26:34.496Z,4.20
2017-06-14T09:29:00.461Z,4.30
2017-06-14T09:31:26.454Z,3.73
2017-06-14T09:33:52.469Z,3.10
2017-06-14T09:36:18.482Z,3.87
2017-06-14T09:38:44.440Z,5.03
2017-06-14T09:41:10.454Z,3.37
2017-06-14T09:43:36.430Z,3.50
2017-06-14T09:46:02.395Z,5.13
2017-06-14T09:48:28.387Z,4.90
2017-06-14T09:50:54.354Z,4.10
2017-06-14T09:53:20.403Z,3.57
2017-06-14T09:55:46.366Z,5.53
2017-06-14T09:58:13.118Z,3.70
2017-06-14T10:00:39.090Z,3.30
2017-06-14T10:03:05.062Z,3.80
2017-06-14T10:05:31.090Z,6.93
2017-06-14T10:07:57.064Z,6.73
2017-06-14T10:10:23.065Z,2.53
2017-06-14T10:12:49.094Z,2.83
2017-06-14T10:15:15.058Z,3.50
2017-06-14T10:17:41.022Z,4.27
2017-06-14T10:20:07.016Z,4.30
2017-06-14T10:22:33.023Z,3.40
2017-06-14T10:24:58.978Z,5.13
2017-06-14T10:27:24.942Z,3.30
2017-06-14T10:29:51.004Z,2.80
2017-06-14T10:32:17.707Z,4.53
2017-06-14T10:34:43.670Z,3.57
2017-06-14T10:37:09.691Z,6.17
2017-06-14T10:39:35.652Z,4.30
2017-06-14T10:42:02.431Z,4.93
2017-06-14T10:44:28.399Z,3.07
2017-06-14T10:46:54.380Z,4.90
2017-06-14T10:49:20.390Z,3.07
2017-06-14T10:51:46.385Z,2.67
2017-06-14T10:54:12.381Z,3.23
2017-06-14T10:56:38.340Z,3.53
2017-06-14T10:59:04.350Z,3.47
2017-06-14T11:01:30.310Z,3.07
2017-06-14T11:03:56.291Z,3.30
2017-06-14T11:06:22.314Z,3.97
2017-06-14T11:08:48.326Z,5.80
2017-06-14T11:11:14.293Z,6.57
2017-06-14T11:13:40.286Z,3.03
2017-06-14T11:16:07.035Z,3.13
2017-06-14T11:18:33.094Z,4.13
2017-06-14T11:20:59.054Z,4.30
2017-06-14T11:23:25.032Z,3.07
2017-06-14T11:25:51.041Z,3.60
2017-06-14T11:28:17.003Z,4.33
2017-06-14T11:30:42.969Z,3.43
2017-06-14T11:33:09.711Z,2.90
2017-06-14T11:35:35.667Z,3.37
2017-06-14T11:38:01.666Z,3.03
2017-06-14T11:40:27.683Z,3.63
2017-06-14T11:42:53.682Z,2.57
2017-06-14T11:45:19.643Z,4.53
2017-06-14T11:47:45.641Z,2.63
2017-06-14T11:50:12.346Z,2.43
2017-06-14T11:52:38.369Z,3.07
2017-06-14T11:55:05.079Z,3.20
2017-06-14T11:57:31.041Z,2.33
2017-06-14T11:59:57.042Z,3.13
2017-06-14T12:02:23.020Z,2.60
2017-06-14T12:04:49.768Z,2.90
2017-06-14T12:07:15.726Z,4.13
2017-06-14T12:09:41.742Z,3.20
2017-06-14T12:12:07.706Z,5.43
2017-06-14T12:14:33.669Z,2.83
2017-06-14T12:16:59.679Z,2.47
2017-06-14T12:19:25.663Z,2.57
2017-06-14T12:21:51.721Z,3.20
2017-06-14T12:24:17.694Z,2.67
2017-06-14T12:26:44.406Z,2.60
2017-06-14T12:29:10.410Z,3.80
2017-06-14T12:31:36.400Z,3.40
2017-06-14T12:34:02.403Z,2.83
2017-06-14T12:36:28.382Z,4.50
2017-06-14T12:38:54.390Z,3.17
2017-06-14T12:41:20.409Z,3.07
2017-06-14T12:43:46.476Z,3.10
2017-06-14T12:46:13.206Z,3.10
2017-06-14T12:48:39.239Z,2.40
2017-06-14T12:51:05.226Z,3.40
2017-06-14T12:53:31.958Z,2.70
2017-06-14T12:55:58.645Z,3.50
2017-06-14T12:58:24.633Z,3.63
2017-06-14T13:00:50.681Z,4.40
2017-06-14T13:03:16.667Z,3.90
2017-06-14T13:05:42.670Z,3.40
2017-06-14T13:08:08.710Z,3.93
2017-06-14T13:10:34.717Z,3.47
2017-06-14T13:13:00.742Z,3.23
2017-06-14T13:15:27.446Z,3.77
2017-06-14T13:17:53.456Z,4.50
2017-06-14T13:20:19.431Z,3.50
2017-06-14T13:22:45.432Z,4.10
2017-06-14T13:25:11.400Z,3.87
2017-06-14T13:27:37.417Z,4.13
2017-06-14T13:30:03.382Z,3.90
2017-06-14T13:32:29.391Z,4.13
2017-06-14T13:34:55.394Z,4.40
2017-06-14T13:37:21.371Z,4.47
2017-06-14T13:39:47.391Z,4.17
2017-06-14T13:42:13.423Z,4.13
2017-06-14T13:44:39.382Z,4.37
2017-06-14T13:47:06.138Z,4.63
2017-06-14T13:49:32.106Z,4.97
2017-06-14T13:51:58.134Z,5.27
2017-06-14T13:54:24.886Z,4.47
2017-06-14T13:56:50.964Z,4.73
2017-06-14T13:59:17.706Z,4.90
2017-06-14T14:01:43.678Z,4.57
2017-06-14T14:04:09.674Z,3.90
2017-06-14T14:06:35.645Z,4.23
2017-06-14T14:09:01.638Z,4.80
2017-06-14T14:11:28.381Z,5.37
2017-06-14T14:13:54.386Z,4.30
2017-06-14T14:16:20.379Z,4.50
2017-06-14T14:18:47.229Z,4.20
2017-06-14T14:21:13.246Z,4.37
2017-06-14T14:23:39.202Z,5.10
2017-06-14T14:26:05.230Z,4.83
2017-06-14T14:28:31.223Z,5.13
2017-06-14T14:30:57.961Z,5.23
2017-06-14T14:33:23.962Z,3.90
2017-06-14T14:35:50.691Z,4.37
2017-06-14T14:38:16.715Z,3.33
2017-06-14T14:40:42.679Z,3.30
2017-06-14T14:43:08.691Z,4.37
2017-06-14T14:45:34.666Z,4.60
2017-06-14T14:48:00.671Z,4.93
2017-06-14T14:50:26.681Z,4.17
2017-06-14T14:52:52.677Z,5.57
2017-06-14T14:55:18.910Z,9.63
2017-06-14T14:57:44.883Z,5.00
2017-06-14T15:00:10.962Z,3.90
2017-06-14T15:02:36.935Z,3.73
2017-06-14T15:05:03.679Z,5.67
2017-06-14T15:07:29.695Z,5.00
2017-06-14T15:09:55.675Z,4.57
2017-06-14T15:12:21.697Z,4.53
2017-06-14T15:14:47.697Z,3.90
2017-06-14T15:17:13.671Z,3.77
2017-06-14T15:19:39.665Z,4.37
2017-06-14T15:22:06.370Z,3.43
2017-06-14T15:24:32.372Z,3.40
2017-06-14T15:26:58.343Z,3.83
2017-06-14T15:29:25.083Z,4.03
2017-06-14T15:31:51.094Z,5.67
2017-06-14T15:34:17.067Z,3.10
2017-06-14T15:36:43.822Z,3.57
2017-06-14T15:39:09.794Z,3.20
2017-06-14T15:41:35.788Z,3.27
2017-06-14T15:44:01.758Z,3.87
2017-06-14T15:46:27.779Z,2.93
2017-06-14T15:48:53.742Z,3.57
2017-06-14T15:51:19.706Z,3.10
2017-06-14T15:53:45.699Z,2.77
2017-06-14T15:56:11.658Z,3.20
2017-06-14T15:58:37.658Z,3.90
2017-06-14T16:01:03.631Z,2.80
2017-06-14T16:03:29.650Z,2.80
2017-06-14T16:05:55.615Z,3.47
2017-06-14T16:08:22.326Z,3.13
2017-06-14T16:10:48.351Z,2.57
2017-06-14T16:13:14.314Z,3.83
2017-06-14T16:15:40.325Z,2.80
2017-06-14T16:18:06.317Z,2.70
2017-06-14T16:20:32.339Z,3.07
2017-06-14T16:22:58.302Z,2.97
2017-06-14T16:25:24.331Z,5.87
2017-06-14T16:27:52.303Z,3.20
2017-06-14T16:30:18.315Z,2.60
2017-06-14T16:32:44.278Z,2.77
2017-06-14T16:35:11.015Z,2.47
2017-06-14T16:37:36.976Z,2.90
2017-06-14T16:40:02.999Z,2.67
2017-06-14T16:42:28.964Z,2.37
2017-06-14T16:44:54.965Z,5.60
2017-06-14T16:47:20.954Z,2.23
2017-06-14T16:49:46.993Z,2.73
2017-06-14T16:52:12.994Z,2.53
2017-06-14T16:54:39.017Z,2.77
2017-06-14T16:57:05.006Z,2.60
2017-06-14T16:59:30.992Z,3.27
2017-06-14T17:01:57.726Z,3.17
2017-06-14T17:04:23.692Z,2.70
2017-06-14T17:06:49.703Z,2.43
2017-06-14T17:09:15.666Z,2.93
2017-06-14T17:11:41.662Z,2.80
2017-06-14T17:14:07.650Z,2.50
2017-06-14T17:16:33.685Z,2.90
2017-06-14T17:18:59.655Z,2.43
2017-06-14T17:21:25.622Z,2.60
2017-06-14T17:23:51.639Z,2.37
2017-06-14T17:26:17.614Z,2.70
2017-06-14T17:28:43.643Z,2.97
2017-06-14T17:31:09.623Z,2.10
2017-06-14T17:33:36.346Z,3.00
2017-06-14T17:36:03.138Z,2.63
2017-06-14T17:38:29.143Z,2.63
2017-06-14T17:40:55.155Z,2.80
2017-06-14T17:43:21.155Z,4.40
2017-06-14T17:45:48.418Z,3.00
2017-06-14T17:48:15.137Z,2.70
2017-06-14T17:50:41.106Z,2.73
2017-06-14T17:53:07.110Z,2.53
2017-06-14T17:55:33.115Z,2.60
2017-06-14T17:57:59.143Z,2.30
2017-06-14T18:00:25.111Z,3.30
2017-06-14T18:02:51.839Z,2.70
2017-06-14T18:05:18.665Z,2.80
2017-06-14T18:07:45.421Z,2.53
2017-06-14T18:10:11.394Z,3.07
2017-06-14T18:12:38.142Z,3.30
2017-06-14T18:15:04.158Z,2.80
2017-06-14T18:17:30.129Z,2.97
2017-06-14T18:19:56.089Z,2.60
2017-06-14T18:22:22.081Z,4.90
2017-06-14T18:24:48.086Z,4.90
2017-06-14T18:27:14.096Z,3.33
2017-06-14T18:29:40.075Z,3.40
2017-06-14T18:32:06.108Z,2.53
2017-06-14T18:34:32.070Z,2.97
2017-06-14T18:36:58.102Z,3.23
2017-06-14T18:39:24.838Z,2.57
2017-06-14T18:41:51.609Z,3.37
2017-06-14T18:44:17.631Z,3.33
2017-06-14T18:46:43.595Z,4.07
2017-06-14T18:49:09.610Z,4.23
2017-06-14T18:51:35.569Z,3.07
2017-06-14T18:54:01.570Z,4.83
2017-06-14T18:56:27.571Z,3.50
2017-06-14T18:58:53.537Z,2.90
2017-06-14T19:01:19.558Z,4.60
2017-06-14T19:03:45.531Z,3.20
2017-06-14T19:06:11.546Z,3.93
2017-06-14T19:08:38.268Z,4.60
2017-06-14T19:11:04.292Z,3.50
2017-06-14T19:13:30.314Z,4.63
2017-06-14T19:15:56.731Z,5.57
2017-06-14T19:18:22.867Z,6.90
2017-06-14T19:20:48.855Z,5.60
2017-06-14T19:23:14.861Z,8.03
2017-06-14T19:25:47.073Z,7.07
2017-06-14T19:28:13.085Z,7.00
2017-06-14T19:30:39.049Z,6.70
2017-06-14T19:33:05.078Z,6.67
2017-06-14T19:35:31.061Z,5.67
2017-06-14T19:37:57.078Z,4.93
2017-06-14T19:40:23.058Z,4.07
2017-06-14T19:42:49.806Z,5.13
2017-06-14T19:45:15.847Z,5.47
2017-06-14T19:47:42.048Z,6.77
2017-06-14T19:50:08.055Z,9.27
2017-06-14T19:52:34.022Z,10.57
2017-06-14T19:55:00.799Z,11.47
2017-06-14T19:57:26.787Z,13.77
2017-06-14T19:59:52.839Z,16.00
2017-06-14T20:02:18.890Z,9.53
2017-06-14T20:04:44.854Z,18.47
2017-06-14T20:07:10.871Z,8.80
2017-06-14T20:09:36.837Z,7.90
2017-06-14T20:12:02.846Z,9.00
2017-06-14T20:14:28.837Z,8.17
2017-06-14T20:16:54.829Z,6.53
2017-06-14T20:19:21.611Z,6.50
2017-06-14T20:21:47.625Z,6.03
2017-06-14T20:24:13.662Z,5.70
2017-06-14T20:26:39.627Z,8.13
2017-06-14T20:29:05.701Z,5.17
2017-06-14T20:31:31.689Z,5.40
2017-06-14T20:33:57.655Z,5.20
2017-06-14T20:36:23.666Z,5.43
2017-06-14T20:38:49.659Z,4.93
2017-06-14T20:41:15.658Z,5.20
2017-06-14T20:43:41.661Z,4.60
2017-06-14T20:46:07.618Z,5.10
2017-06-14T20:48:33.582Z,5.30
2017-06-14T20:50:59.579Z,4.67
2017-06-14T20:53:26.330Z,4.83
2017-06-14T20:55:52.391Z,4.13
2017-06-14T20:58:18.415Z,3.90
2017-06-14T21:00:45.123Z,4.70
2017-06-14T21:03:11.119Z,4.77
2017-06-14T21:05:37.073Z,4.27
2017-06-14T21:08:03.061Z,4.43
2017-06-14T21:10:29.770Z,4.97
2017-06-14T21:12:55.798Z,4.17
2017-06-14T21:15:21.779Z,4.80
2017-06-14T21:17:47.782Z,4.10
2017-06-14T21:20:13.798Z,4.43
2017-06-14T21:22:39.759Z,3.90
2017-06-14T21:25:05.710Z,4.33
2017-06-14T21:27:31.705Z,4.60
2017-06-14T21:29:57.670Z,7.47
2017-06-14T21:32:23.687Z,5.37
2017-06-14T21:34:49.683Z,5.00
2017-06-14T21:37:16.399Z,4.13
2017-06-14T21:39:43.130Z,5.57
2017-06-14T21:42:09.834Z,6.40
2017-06-14T21:44:35.846Z,4.70
2017-06-14T21:47:01.807Z,4.87
2017-06-14T21:49:27.781Z,6.10
2017-06-14T21:51:53.776Z,7.17
2017-06-14T21:54:19.766Z,5.77
2017-06-14T21:56:45.758Z,6.63
2017-06-14T21:59:11.722Z,5.53
2017-06-14T22:01:38.491Z,6.00
2017-06-14T22:04:04.478Z,5.93
2017-06-14T22:06:30.482Z,5.97
2017-06-14T22:08:56.491Z,6.50
2017-06-14T22:11:22.453Z,5.67
2017-06-14T22:13:48.438Z,5.80
2017-06-14T22:16:14.443Z,6.37
2017-06-14T22:18:40.410Z,5.93
2017-06-14T22:21:07.154Z,5.10
2017-06-14T22:23:40.136Z,6.73
2017-06-14T22:26:06.155Z,5.83
2017-06-14T22:28:32.119Z,7.00
2017-06-14T22:30:58.847Z,5.87
2017-06-14T22:33:25.586Z,8.03
2017-06-14T22:35:51.587Z,5.73
2017-06-14T22:38:24.537Z,5.93
2017-06-14T22:40:50.527Z,6.17
2017-06-14T22:43:17.335Z,5.87
2017-06-14T22:45:43.343Z,7.90
2017-06-14T22:48:09.348Z,5.33
2017-06-14T22:50:35.370Z,9.70
2017-06-14T22:53:01.342Z,6.50
2017-06-14T22:55:27.355Z,6.60
2017-06-14T22:57:53.358Z,5.83
2017-06-14T23:00:19.339Z,5.73
2017-06-14T23:02:45.332Z,5.43
2017-06-14T23:05:11.290Z,8.10
2017-06-14T23:07:37.290Z,5.57
2017-06-14T23:10:03.249Z,5.80
2017-06-14T23:12:29.250Z,5.93
2017-06-14T23:14:55.222Z,7.47
2017-06-14T23:17:21.201Z,6.23
2017-06-14T23:19:47.246Z,5.47
2017-06-14T23:22:13.208Z,5.97
2017-06-14T23:24:39.175Z,5.70
2017-06-14T23:27:05.166Z,5.33
2017-06-14T23:29:31.191Z,5.70
2017-06-14T23:31:57.149Z,5.40
2017-06-14T23:34:23.118Z,6.10
2017-06-14T23:36:49.134Z,6.00
2017-06-14T23:39:15.107Z,6.43
2017-06-14T23:41:41.114Z,6.57
2017-06-14T23:44:07.159Z,6.37
2017-06-14T23:46:33.125Z,6.00
2017-06-14T23:48:59.114Z,5.97
2017-06-14T23:51:25.834Z,5.77
2017-06-14T23:53:52.582Z,7.93
2017-06-14T23:56:19.345Z,5.80
2017-06-14T23:58:45.422Z,5.73
